sensor_id;sensor_type;location;lat;lon;timestamp;pressure;altitude;pressure_sealevel;temperature;humidity
8318;BME280;4196;48.926;8.964;2023-01-26T00:02:23;99682.69;;;-0.14;100.00
8318;BME280;4196;48.926;8.964;2023-01-26T00:05:09;99667.81;;;-0.23;100.00
8318;BME280;4196;48.926;8.964;2023-01-26T00:07:56;99671.50;;;-0.18;100.00
8318;BME280;4196;48.926;8.964;2023-01-26T00:10:43;99676.00;;;-0.12;100.00
8318;BME280;4196;48.926;8.964;2023-01-26T00:13:36;99673.59;;;-0.09;100.00
8318;BME280;4196;48.926;8.964;2023-01-26T00:16:23;99670.91;;;-0.12;100.00
8318;BME280;4196;48.926;8.964;2023-01-26T00:19:10;99642.53;;;-0.20;100.00
8318;BME280;4196;48.926;8.964;2023-01-26T00:21:56;99643.41;;;-0.19;100.00
8318;BME280;4196;48.926;8.964;2023-01-26T00:24:43;99644.75;;;-0.26;100.00
8318;BME280;4196;48.926;8.964;2023-01-26T00:27:33;99610.38;;;-0.36;100.00
8318;BME280;4196;48.926;8.964;2023-01-26T00:30:19;99636.25;;;-0.27;100.00
8318;BME280;4196;48.926;8.964;2023-01-26T00:33:06;99616.78;;;-0.26;100.00
8318;BME280;4196;48.926;8.964;2023-01-26T00:35:53;99610.09;;;-0.24;100.00
8318;BME280;4196;48.926;8.964;2023-01-26T00:38:40;99643.59;;;0.02;100.00
8318;BME280;4196;48.926;8.964;2023-01-26T00:41:26;99610.53;;;-0.33;100.00
8318;BME280;4196;48.926;8.964;2023-01-26T00:44:35;99607.09;;;-0.33;100.00
8318;BME280;4196;48.926;8.964;2023-01-26T00:47:22;99635.06;;;-0.17;100.00
8318;BME280;4196;48.926;8.964;2023-01-26T00:50:09;99607.19;;;-0.32;100.00
8318;BME280;4196;48.926;8.964;2023-01-26T00:52:56;99596.22;;;-0.13;100.00
8318;BME280;4196;48.926;8.964;2023-01-26T00:55:43;99625.84;;;0.03;100.00
8318;BME280;4196;48.926;8.964;2023-01-26T00:58:29;99619.84;;;-0.15;100.00
8318;BME280;4196;48.926;8.964;2023-01-26T01:01:16;99588.13;;;-0.40;100.00
8318;BME280;4196;48.926;8.964;2023-01-26T01:04:02;99623.19;;;-0.16;100.00
8318;BME280;4196;48.926;8.964;2023-01-26T01:06:48;99604.88;;;-0.27;100.00
8318;BME280;4196;48.926;8.964;2023-01-26T01:09:35;99603.03;;;-0.30;100.00
8318;BME280;4196;48.926;8.964;2023-01-26T01:12:22;99600.47;;;-0.30;100.00
8318;BME280;4196;48.926;8.964;2023-01-26T01:15:09;99634.69;;;-0.41;100.00
8318;BME280;4196;48.926;8.964;2023-01-26T01:17:55;99636.81;;;-0.50;100.00
8318;BME280;4196;48.926;8.964;2023-01-26T01:20:42;99597.88;;;-0.82;100.00
8318;BME280;4196;48.926;8.964;2023-01-26T01:23:28;99598.38;;;-0.73;100.00
8318;BME280;4196;48.926;8.964;2023-01-26T01:26:14;99634.25;;;-0.66;100.00
8318;BME280;4196;48.926;8.964;2023-01-26T01:29:01;99601.72;;;-0.74;100.00
8318;BME280;4196;48.926;8.964;2023-01-26T01:31:48;99597.19;;;-0.79;100.00
8318;BME280;4196;48.926;8.964;2023-01-26T01:34:34;99595.88;;;-0.71;100.00
8318;BME280;4196;48.926;8.964;2023-01-26T01:37:20;99579.94;;;-0.68;100.00
8318;BME280;4196;48.926;8.964;2023-01-26T01:40:10;99578.63;;;-0.60;100.00
8318;BME280;4196;48.926;8.964;2023-01-26T01:42:57;99603.78;;;-0.32;100.00
8318;BME280;4196;48.926;8.964;2023-01-26T01:45:48;99604.72;;;-0.12;100.00
8318;BME280;4196;48.926;8.964;2023-01-26T01:51:37;99594.28;;;-0.18;100.00
8318;BME280;4196;48.926;8.964;2023-01-26T01:54:37;99571.19;;;-0.39;100.00
8318;BME280;4196;48.926;8.964;2023-01-26T01:57:28;99574.91;;;-0.33;100.00
8318;BME280;4196;48.926;8.964;2023-01-26T02:00:19;99593.97;;;-0.25;100.00
8318;BME280;4196;48.926;8.964;2023-01-26T02:03:08;99589.88;;;-0.39;100.00
8318;BME280;4196;48.926;8.964;2023-01-26T02:06:04;99567.91;;;-0.55;100.00
8318;BME280;4196;48.926;8.964;2023-01-26T02:08:53;99565.69;;;-0.65;100.00
8318;BME280;4196;48.926;8.964;2023-01-26T02:11:42;99520.00;;;-0.98;100.00
8318;BME280;4196;48.926;8.964;2023-01-26T02:14:31;99595.94;;;-0.53;100.00
8318;BME280;4196;48.926;8.964;2023-01-26T02:17:18;99558.06;;;-0.81;100.00
8318;BME280;4196;48.926;8.964;2023-01-26T02:26:05;99533.94;;;-0.73;100.00
8318;BME280;4196;48.926;8.964;2023-01-26T02:28:53;99556.63;;;-0.60;100.00
8318;BME280;4196;48.926;8.964;2023-01-26T02:31:40;99567.53;;;-0.44;100.00
8318;BME280;4196;48.926;8.964;2023-01-26T02:34:27;99553.50;;;-0.54;100.00
8318;BME280;4196;48.926;8.964;2023-01-26T02:37:14;99577.22;;;-0.55;100.00
8318;BME280;4196;48.926;8.964;2023-01-26T02:40:18;99569.16;;;-0.63;100.00
8318;BME280;4196;48.926;8.964;2023-01-26T02:43:09;99539.34;;;-0.83;100.00
8318;BME280;4196;48.926;8.964;2023-01-26T02:45:56;99557.97;;;-0.66;100.00
8318;BME280;4196;48.926;8.964;2023-01-26T02:48:43;99513.41;;;-0.94;100.00
8318;BME280;4196;48.926;8.964;2023-01-26T02:51:48;99543.72;;;-0.81;100.00
8318;BME280;4196;48.926;8.964;2023-01-26T02:54:34;99555.31;;;-0.86;100.00
8318;BME280;4196;48.926;8.964;2023-01-26T02:57:40;99551.72;;;-0.73;100.00
8318;BME280;4196;48.926;8.964;2023-01-26T03:00:30;99577.00;;;-0.76;100.00
8318;BME280;4196;48.926;8.964;2023-01-26T03:03:24;99574.56;;;-0.91;100.00
8318;BME280;4196;48.926;8.964;2023-01-26T03:06:12;99567.81;;;-0.90;100.00
8318;BME280;4196;48.926;8.964;2023-01-26T03:08:58;99536.97;;;-0.97;100.00
8318;BME280;4196;48.926;8.964;2023-01-26T03:11:45;99549.78;;;-0.95;100.00
8318;BME280;4196;48.926;8.964;2023-01-26T03:14:31;99562.63;;;-0.76;100.00
8318;BME280;4196;48.926;8.964;2023-01-26T03:17:18;99532.16;;;-1.08;100.00
8318;BME280;4196;48.926;8.964;2023-01-26T03:20:05;99560.97;;;-0.91;100.00
8318;BME280;4196;48.926;8.964;2023-01-26T03:23:10;99537.84;;;-0.96;100.00
8318;BME280;4196;48.926;8.964;2023-01-26T03:26:15;99484.56;;;-1.29;100.00
8318;BME280;4196;48.926;8.964;2023-01-26T03:29:21;99528.97;;;-0.88;100.00
8318;BME280;4196;48.926;8.964;2023-01-26T03:32:10;99553.91;;;-0.81;100.00
8318;BME280;4196;48.926;8.964;2023-01-26T03:35:00;99477.47;;;-1.34;100.00
8318;BME280;4196;48.926;8.964;2023-01-26T03:37:46;99529.94;;;-1.18;100.00
8318;BME280;4196;48.926;8.964;2023-01-26T03:40:57;99519.28;;;-1.11;100.00
8318;BME280;4196;48.926;8.964;2023-01-26T03:44:01;99529.06;;;-1.03;100.00
8318;BME280;4196;48.926;8.964;2023-01-26T03:47:07;99499.97;;;-0.91;100.00
8318;BME280;4196;48.926;8.964;2023-01-26T03:50:13;99513.72;;;-0.88;100.00
8318;BME280;4196;48.926;8.964;2023-01-26T03:53:23;99528.91;;;-0.71;100.00
8318;BME280;4196;48.926;8.964;2023-01-26T03:56:30;99516.69;;;-0.79;100.00
8318;BME280;4196;48.926;8.964;2023-01-26T03:59:27;99506.50;;;-0.62;100.00
8318;BME280;4196;48.926;8.964;2023-01-26T04:02:29;99518.06;;;-0.51;100.00
8318;BME280;4196;48.926;8.964;2023-01-26T04:05:35;99467.66;;;-0.94;100.00
8318;BME280;4196;48.926;8.964;2023-01-26T04:08:40;99449.03;;;-0.93;100.00
8318;BME280;4196;48.926;8.964;2023-01-26T04:11:26;99519.59;;;-0.71;100.00
8318;BME280;4196;48.926;8.964;2023-01-26T04:14:14;99528.25;;;-0.67;100.00
8318;BME280;4196;48.926;8.964;2023-01-26T04:17:35;99486.72;;;-1.02;100.00
8318;BME280;4196;48.926;8.964;2023-01-26T04:20:41;99467.22;;;-1.19;100.00
8318;BME280;4196;48.926;8.964;2023-01-26T04:23:46;99459.38;;;-1.24;100.00
8318;BME280;4196;48.926;8.964;2023-01-26T04:26:34;99527.72;;;-0.78;100.00
8318;BME280;4196;48.926;8.964;2023-01-26T04:29:23;99489.44;;;-1.15;100.00
8318;BME280;4196;48.926;8.964;2023-01-26T04:32:10;99516.03;;;-0.75;100.00
8318;BME280;4196;48.926;8.964;2023-01-26T04:34:57;99510.81;;;-0.78;100.00
8318;BME280;4196;48.926;8.964;2023-01-26T04:37:46;99536.38;;;-0.75;100.00
8318;BME280;4196;48.926;8.964;2023-01-26T04:40:32;99513.28;;;-0.79;100.00
8318;BME280;4196;48.926;8.964;2023-01-26T04:43:19;99485.59;;;-1.07;100.00
8318;BME280;4196;48.926;8.964;2023-01-26T04:46:07;99531.94;;;-0.79;100.00
8318;BME280;4196;48.926;8.964;2023-01-26T04:48:56;99502.84;;;-1.02;100.00
8318;BME280;4196;48.926;8.964;2023-01-26T04:51:43;99507.81;;;-0.87;100.00
8318;BME280;4196;48.926;8.964;2023-01-26T04:54:30;99499.53;;;-0.83;100.00
8318;BME280;4196;48.926;8.964;2023-01-26T04:57:18;99523.13;;;-0.85;100.00
8318;BME280;4196;48.926;8.964;2023-01-26T05:00:10;99490.69;;;-0.91;100.00
8318;BME280;4196;48.926;8.964;2023-01-26T05:02:57;99487.38;;;-1.06;100.00
8318;BME280;4196;48.926;8.964;2023-01-26T05:05:44;99510.91;;;-0.76;100.00
8318;BME280;4196;48.926;8.964;2023-01-26T05:08:35;99505.09;;;-0.74;100.00
8318;BME280;4196;48.926;8.964;2023-01-26T05:11:22;99505.59;;;-0.97;100.00
8318;BME280;4196;48.926;8.964;2023-01-26T05:14:25;99487.50;;;-1.03;100.00
8318;BME280;4196;48.926;8.964;2023-01-26T05:17:37;99485.47;;;-1.10;100.00
8318;BME280;4196;48.926;8.964;2023-01-26T05:20:52;99458.94;;;-1.15;100.00
8318;BME280;4196;48.926;8.964;2023-01-26T05:23:44;99510.53;;;-0.84;100.00
8318;BME280;4196;48.926;8.964;2023-01-26T05:26:41;99513.63;;;-0.89;100.00
8318;BME280;4196;48.926;8.964;2023-01-26T05:29:31;99473.94;;;-1.04;100.00
8318;BME280;4196;48.926;8.964;2023-01-26T05:32:18;99465.53;;;-1.03;100.00
8318;BME280;4196;48.926;8.964;2023-01-26T05:35:06;99474.31;;;-0.96;100.00
8318;BME280;4196;48.926;8.964;2023-01-26T05:37:53;99513.22;;;-0.81;100.00
8318;BME280;4196;48.926;8.964;2023-01-26T05:40:41;99513.22;;;-0.81;100.00
8318;BME280;4196;48.926;8.964;2023-01-26T05:43:28;99490.63;;;-1.09;100.00
8318;BME280;4196;48.926;8.964;2023-01-26T05:46:33;99514.25;;;-0.93;100.00
8318;BME280;4196;48.926;8.964;2023-01-26T05:49:20;99507.22;;;-0.81;100.00
8318;BME280;4196;48.926;8.964;2023-01-26T05:52:09;99488.94;;;-1.08;100.00
8318;BME280;4196;48.926;8.964;2023-01-26T05:54:58;99509.41;;;-0.89;100.00
8318;BME280;4196;48.926;8.964;2023-01-26T05:57:44;99512.63;;;-0.75;100.00
8318;BME280;4196;48.926;8.964;2023-01-26T06:00:31;99514.47;;;-0.89;100.00
8318;BME280;4196;48.926;8.964;2023-01-26T06:03:25;99485.75;;;-0.88;100.00
8318;BME280;4196;48.926;8.964;2023-01-26T06:06:11;99520.94;;;-0.61;100.00
8318;BME280;4196;48.926;8.964;2023-01-26T06:09:09;99487.53;;;-0.85;100.00
8318;BME280;4196;48.926;8.964;2023-01-26T06:12:22;99508.00;;;-0.66;100.00
8318;BME280;4196;48.926;8.964;2023-01-26T06:15:14;99492.66;;;-0.67;100.00
8318;BME280;4196;48.926;8.964;2023-01-26T06:18:03;99507.88;;;-0.51;100.00
8318;BME280;4196;48.926;8.964;2023-01-26T06:20:50;99504.69;;;-0.47;100.00
8318;BME280;4196;48.926;8.964;2023-01-26T06:23:36;99501.03;;;-0.52;100.00
8318;BME280;4196;48.926;8.964;2023-01-26T06:26:23;99514.00;;;-0.47;100.00
8318;BME280;4196;48.926;8.964;2023-01-26T06:29:11;99448.34;;;-0.73;100.00
8318;BME280;4196;48.926;8.964;2023-01-26T06:31:59;99501.34;;;-0.46;100.00
8318;BME280;4196;48.926;8.964;2023-01-26T06:34:46;99519.09;;;-0.47;100.00
8318;BME280;4196;48.926;8.964;2023-01-26T06:37:33;99519.44;;;-0.40;100.00
8318;BME280;4196;48.926;8.964;2023-01-26T06:40:20;99509.34;;;-0.38;100.00
8318;BME280;4196;48.926;8.964;2023-01-26T06:43:07;99525.47;;;-0.38;100.00
8318;BME280;4196;48.926;8.964;2023-01-26T06:45:58;99518.94;;;-0.33;100.00
8318;BME280;4196;48.926;8.964;2023-01-26T06:48:44;99494.22;;;-0.53;100.00
8318;BME280;4196;48.926;8.964;2023-01-26T06:51:45;99521.50;;;-0.33;100.00
8318;BME280;4196;48.926;8.964;2023-01-26T06:54:32;99491.94;;;-0.65;100.00
8318;BME280;4196;48.926;8.964;2023-01-26T06:57:40;99515.72;;;-0.64;100.00
8318;BME280;4196;48.926;8.964;2023-01-26T07:00:45;99501.28;;;-0.82;100.00
8318;BME280;4196;48.926;8.964;2023-01-26T07:03:32;99509.44;;;-0.71;100.00
8318;BME280;4196;48.926;8.964;2023-01-26T07:06:20;99493.88;;;-0.95;100.00
8318;BME280;4196;48.926;8.964;2023-01-26T07:09:06;99506.56;;;-0.61;100.00
8318;BME280;4196;48.926;8.964;2023-01-26T07:11:52;99524.03;;;-0.33;100.00
8318;BME280;4196;48.926;8.964;2023-01-26T07:14:39;99527.78;;;-0.42;100.00
8318;BME280;4196;48.926;8.964;2023-01-26T07:17:26;99537.31;;;-0.38;100.00
8318;BME280;4196;48.926;8.964;2023-01-26T07:20:12;99487.22;;;-0.57;100.00
8318;BME280;4196;48.926;8.964;2023-01-26T07:22:59;99537.69;;;-0.31;100.00
8318;BME280;4196;48.926;8.964;2023-01-26T07:25:46;99525.19;;;-0.44;100.00
8318;BME280;4196;48.926;8.964;2023-01-26T07:28:32;99516.41;;;-0.33;100.00
8318;BME280;4196;48.926;8.964;2023-01-26T07:31:25;99522.72;;;-0.25;100.00
8318;BME280;4196;48.926;8.964;2023-01-26T07:34:11;99530.34;;;-0.25;100.00
8318;BME280;4196;48.926;8.964;2023-01-26T07:36:58;99522.41;;;-0.31;100.00
8318;BME280;4196;48.926;8.964;2023-01-26T07:39:44;99479.41;;;-0.44;100.00
8318;BME280;4196;48.926;8.964;2023-01-26T07:42:30;99524.16;;;-0.30;100.00
8318;BME280;4196;48.926;8.964;2023-01-26T07:45:23;99486.34;;;-0.76;100.00
8318;BME280;4196;48.926;8.964;2023-01-26T07:48:09;99536.66;;;-0.34;100.00
8318;BME280;4196;48.926;8.964;2023-01-26T07:51:02;99495.66;;;-0.58;100.00
8318;BME280;4196;48.926;8.964;2023-01-26T07:53:49;99537.78;;;-0.63;100.00
8318;BME280;4196;48.926;8.964;2023-01-26T07:56:35;99527.50;;;-0.49;100.00
8318;BME280;4196;48.926;8.964;2023-01-26T07:59:23;99520.81;;;-0.46;100.00
8318;BME280;4196;48.926;8.964;2023-01-26T08:02:09;99500.91;;;-0.55;100.00
8318;BME280;4196;48.926;8.964;2023-01-26T08:04:56;99520.63;;;-0.67;100.00
8318;BME280;4196;48.926;8.964;2023-01-26T08:07:42;99545.06;;;-0.53;100.00
8318;BME280;4196;48.926;8.964;2023-01-26T08:10:29;99539.09;;;-0.71;100.00
8318;BME280;4196;48.926;8.964;2023-01-26T08:13:19;99535.28;;;-0.80;100.00
8318;BME280;4196;48.926;8.964;2023-01-26T08:16:20;99543.84;;;-0.78;100.00
8318;BME280;4196;48.926;8.964;2023-01-26T08:19:06;99509.81;;;-0.98;100.00
8318;BME280;4196;48.926;8.964;2023-01-26T08:21:53;99501.97;;;-1.02;100.00
8318;BME280;4196;48.926;8.964;2023-01-26T08:24:39;99529.63;;;-0.74;100.00
8318;BME280;4196;48.926;8.964;2023-01-26T08:27:26;99521.66;;;-0.64;100.00
8318;BME280;4196;48.926;8.964;2023-01-26T08:30:12;99511.22;;;-0.70;100.00
8318;BME280;4196;48.926;8.964;2023-01-26T08:32:59;99541.50;;;-0.57;100.00
8318;BME280;4196;48.926;8.964;2023-01-26T08:35:45;99548.16;;;-0.42;100.00
8318;BME280;4196;48.926;8.964;2023-01-26T08:38:32;99510.03;;;-0.77;100.00
8318;BME280;4196;48.926;8.964;2023-01-26T08:41:19;99529.06;;;-0.68;100.00
8318;BME280;4196;48.926;8.964;2023-01-26T08:44:05;99492.56;;;-0.87;100.00
8318;BME280;4196;48.926;8.964;2023-01-26T08:46:52;99534.19;;;-0.51;100.00
8318;BME280;4196;48.926;8.964;2023-01-26T08:49:38;99530.84;;;-0.32;100.00
8318;BME280;4196;48.926;8.964;2023-01-26T08:52:25;99487.81;;;-0.45;100.00
8318;BME280;4196;48.926;8.964;2023-01-26T08:55:11;99537.19;;;-0.06;100.00
8318;BME280;4196;48.926;8.964;2023-01-26T08:57:57;99545.13;;;-0.17;100.00
8318;BME280;4196;48.926;8.964;2023-01-26T09:00:44;99523.13;;;-0.15;100.00
8318;BME280;4196;48.926;8.964;2023-01-26T09:03:30;99531.94;;;-0.27;100.00
8318;BME280;4196;48.926;8.964;2023-01-26T09:06:16;99535.34;;;-0.26;100.00
8318;BME280;4196;48.926;8.964;2023-01-26T09:09:03;99485.91;;;-0.49;100.00
8318;BME280;4196;48.926;8.964;2023-01-26T09:11:49;99491.75;;;-0.34;100.00
8318;BME280;4196;48.926;8.964;2023-01-26T09:14:35;99530.97;;;0.07;100.00
8318;BME280;4196;48.926;8.964;2023-01-26T09:17:21;99497.47;;;-0.38;100.00
8318;BME280;4196;48.926;8.964;2023-01-26T09:20:11;99496.47;;;-0.41;100.00
8318;BME280;4196;48.926;8.964;2023-01-26T09:22:58;99531.88;;;-0.46;100.00
8318;BME280;4196;48.926;8.964;2023-01-26T09:25:44;99497.28;;;-0.42;100.00
8318;BME280;4196;48.926;8.964;2023-01-26T09:28:30;99522.41;;;-0.31;100.00
8318;BME280;4196;48.926;8.964;2023-01-26T09:31:17;99524.09;;;-0.13;100.00
8318;BME280;4196;48.926;8.964;2023-01-26T09:34:03;99530.88;;;0.04;100.00
8318;BME280;4196;48.926;8.964;2023-01-26T09:36:50;99538.34;;;0.01;100.00
8318;BME280;4196;48.926;8.964;2023-01-26T09:39:37;99514.84;;;-0.11;100.00
8318;BME280;4196;48.926;8.964;2023-01-26T09:48:27;99537.88;;;0.28;100.00
8318;BME280;4196;48.926;8.964;2023-01-26T09:51:34;99535.94;;;0.04;100.00
8318;BME280;4196;48.926;8.964;2023-01-26T09:54:24;99539.69;;;0.30;100.00
8318;BME280;4196;48.926;8.964;2023-01-26T10:00:30;99518.84;;;0.02;100.00
8318;BME280;4196;48.926;8.964;2023-01-26T10:03:44;99539.44;;;0.06;100.00
8318;BME280;4196;48.926;8.964;2023-01-26T10:06:33;99507.97;;;-0.32;100.00
8318;BME280;4196;48.926;8.964;2023-01-26T10:09:27;99520.22;;;-0.23;100.00
8318;BME280;4196;48.926;8.964;2023-01-26T10:12:21;99533.25;;;-0.35;100.00
8318;BME280;4196;48.926;8.964;2023-01-26T10:18:12;99536.97;;;-0.10;100.00
8318;BME280;4196;48.926;8.964;2023-01-26T10:21:03;99520.53;;;-0.35;100.00
8318;BME280;4196;48.926;8.964;2023-01-26T10:23:53;99525.19;;;-0.26;100.00
8318;BME280;4196;48.926;8.964;2023-01-26T10:26:40;99494.78;;;-0.41;100.00
8318;BME280;4196;48.926;8.964;2023-01-26T10:29:27;99507.47;;;-0.25;100.00
8318;BME280;4196;48.926;8.964;2023-01-26T10:32:16;99513.84;;;-0.33;100.00
8318;BME280;4196;48.926;8.964;2023-01-26T10:35:03;99512.59;;;-0.41;100.00
8318;BME280;4196;48.926;8.964;2023-01-26T10:37:51;99497.13;;;-0.45;100.00
8318;BME280;4196;48.926;8.964;2023-01-26T10:40:42;99502.00;;;-0.50;100.00
8318;BME280;4196;48.926;8.964;2023-01-26T10:43:39;99502.81;;;-0.51;100.00
8318;BME280;4196;48.926;8.964;2023-01-26T10:46:35;99505.34;;;-0.51;100.00
8318;BME280;4196;48.926;8.964;2023-01-26T10:49:23;99519.97;;;-0.29;100.00
8318;BME280;4196;48.926;8.964;2023-01-26T10:52:21;99519.06;;;-0.30;100.00
8318;BME280;4196;48.926;8.964;2023-01-26T10:55:11;99510.19;;;-0.38;100.00
8318;BME280;4196;48.926;8.964;2023-01-26T10:58:04;99516.31;;;-0.16;100.00
8318;BME280;4196;48.926;8.964;2023-01-26T11:00:54;99484.53;;;-0.60;100.00
8318;BME280;4196;48.926;8.964;2023-01-26T11:03:42;99510.84;;;-0.42;100.00
8318;BME280;4196;48.926;8.964;2023-01-26T11:06:43;99508.47;;;-0.39;100.00
8318;BME280;4196;48.926;8.964;2023-01-26T11:09:30;99510.81;;;-0.26;100.00
8318;BME280;4196;48.926;8.964;2023-01-26T11:12:18;99482.31;;;-0.36;100.00
8318;BME280;4196;48.926;8.964;2023-01-26T11:15:24;99465.88;;;-0.43;100.00
8318;BME280;4196;48.926;8.964;2023-01-26T11:21:19;99496.47;;;-0.23;100.00
8318;BME280;4196;48.926;8.964;2023-01-26T11:24:15;99497.44;;;-0.21;100.00
8318;BME280;4196;48.926;8.964;2023-01-26T11:30:37;99494.38;;;-0.14;100.00
8318;BME280;4196;48.926;8.964;2023-01-26T11:36:51;99484.91;;;-0.35;100.00
8318;BME280;4196;48.926;8.964;2023-01-26T11:39:58;99449.44;;;-0.50;100.00
8318;BME280;4196;48.926;8.964;2023-01-26T11:55:17;99474.59;;;-0.74;100.00
8318;BME280;4196;48.926;8.964;2023-01-26T12:00:58;99437.56;;;-0.85;100.00
8318;BME280;4196;48.926;8.964;2023-01-26T12:03:50;99452.94;;;-0.65;100.00
8318;BME280;4196;48.926;8.964;2023-01-26T12:06:39;99455.91;;;-0.56;100.00
8318;BME280;4196;48.926;8.964;2023-01-26T12:09:45;99458.47;;;-0.38;100.00
8318;BME280;4196;48.926;8.964;2023-01-26T12:12:36;99442.78;;;-0.47;100.00
8318;BME280;4196;48.926;8.964;2023-01-26T12:15:33;99415.06;;;-0.59;100.00
8318;BME280;4196;48.926;8.964;2023-01-26T12:18:26;99408.91;;;-0.64;100.00
8318;BME280;4196;48.926;8.964;2023-01-26T12:21:33;99418.97;;;-0.48;100.00
8318;BME280;4196;48.926;8.964;2023-01-26T12:24:32;99439.78;;;-0.39;100.00
8318;BME280;4196;48.926;8.964;2023-01-26T12:27:52;99442.84;;;-0.46;100.00
8318;BME280;4196;48.926;8.964;2023-01-26T12:33:38;99437.53;;;-0.33;100.00
8318;BME280;4196;48.926;8.964;2023-01-26T12:39:36;99426.91;;;-0.42;100.00
8318;BME280;4196;48.926;8.964;2023-01-26T12:45:22;99436.50;;;-0.36;100.00
8318;BME280;4196;48.926;8.964;2023-01-26T12:48:19;99424.88;;;-0.49;100.00
8318;BME280;4196;48.926;8.964;2023-01-26T12:51:11;99421.25;;;-0.54;100.00
8318;BME280;4196;48.926;8.964;2023-01-26T12:54:12;99404.84;;;-0.79;100.00
8318;BME280;4196;48.926;8.964;2023-01-26T12:57:05;99424.00;;;-0.67;100.00
8318;BME280;4196;48.926;8.964;2023-01-26T13:00:05;99391.91;;;-0.83;100.00
8318;BME280;4196;48.926;8.964;2023-01-26T13:03:25;99414.44;;;-0.55;100.00
8318;BME280;4196;48.926;8.964;2023-01-26T13:11:52;99415.00;;;-0.43;100.00
8318;BME280;4196;48.926;8.964;2023-01-26T13:20:46;99402.44;;;-0.40;100.00
8318;BME280;4196;48.926;8.964;2023-01-26T13:23:40;99378.59;;;-0.42;100.00
8318;BME280;4196;48.926;8.964;2023-01-26T13:29:29;99382.00;;;-0.41;100.00
8318;BME280;4196;48.926;8.964;2023-01-26T13:35:08;99403.44;;;0.01;100.00
8318;BME280;4196;48.926;8.964;2023-01-26T13:40:55;99362.22;;;-0.29;100.00
8318;BME280;4196;48.926;8.964;2023-01-26T13:43:45;99385.28;;;-0.07;100.00
8318;BME280;4196;48.926;8.964;2023-01-26T13:46:41;99393.34;;;-0.15;100.00
8318;BME280;4196;48.926;8.964;2023-01-26T13:49:39;99402.28;;;-0.06;100.00
8318;BME280;4196;48.926;8.964;2023-01-26T13:52:26;99398.72;;;0.10;100.00
8318;BME280;4196;48.926;8.964;2023-01-26T13:55:31;99380.38;;;0.17;100.00
8318;BME280;4196;48.926;8.964;2023-01-26T13:58:22;99409.44;;;0.03;100.00
8318;BME280;4196;48.926;8.964;2023-01-26T14:01:12;99402.03;;;0.08;100.00
8318;BME280;4196;48.926;8.964;2023-01-26T14:04:08;99377.03;;;-0.01;100.00
8318;BME280;4196;48.926;8.964;2023-01-26T14:07:05;99347.69;;;-0.32;100.00
8318;BME280;4196;48.926;8.964;2023-01-26T14:09:54;99411.25;;;0.06;100.00
8318;BME280;4196;48.926;8.964;2023-01-26T14:12:48;99430.06;;;-0.10;100.00
8318;BME280;4196;48.926;8.964;2023-01-26T14:15:37;99411.44;;;-0.09;100.00
8318;BME280;4196;48.926;8.964;2023-01-26T14:18:24;99413.72;;;-0.15;100.00
8318;BME280;4196;48.926;8.964;2023-01-26T14:21:21;99420.22;;;-0.22;100.00
8318;BME280;4196;48.926;8.964;2023-01-26T14:24:08;99415.13;;;-0.22;100.00
8318;BME280;4196;48.926;8.964;2023-01-26T14:26:55;99391.44;;;-0.39;100.00
8318;BME280;4196;48.926;8.964;2023-01-26T14:29:41;99349.34;;;-0.69;100.00
8318;BME280;4196;48.926;8.964;2023-01-26T14:32:29;99392.28;;;-0.58;100.00
8318;BME280;4196;48.926;8.964;2023-01-26T14:35:20;99417.84;;;-0.37;100.00
8318;BME280;4196;48.926;8.964;2023-01-26T14:40:58;99400.91;;;-0.54;100.00
8318;BME280;4196;48.926;8.964;2023-01-26T14:43:48;99424.66;;;-0.36;100.00
8318;BME280;4196;48.926;8.964;2023-01-26T14:49:47;99436.66;;;-0.51;100.00
8318;BME280;4196;48.926;8.964;2023-01-26T14:52:36;99428.22;;;-0.50;100.00
8318;BME280;4196;48.926;8.964;2023-01-26T14:55:29;99437.81;;;-0.44;100.00
8318;BME280;4196;48.926;8.964;2023-01-26T14:58:23;99414.28;;;-0.58;100.00
8318;BME280;4196;48.926;8.964;2023-01-26T15:01:22;99431.47;;;-0.35;100.00
8318;BME280;4196;48.926;8.964;2023-01-26T15:04:25;99431.34;;;-0.38;100.00
8318;BME280;4196;48.926;8.964;2023-01-26T15:07:31;99425.84;;;-0.47;100.00
8318;BME280;4196;48.926;8.964;2023-01-26T15:10:54;99430.00;;;-0.30;100.00
8318;BME280;4196;48.926;8.964;2023-01-26T15:14:01;99424.06;;;-0.48;100.00
8318;BME280;4196;48.926;8.964;2023-01-26T15:16:52;99441.00;;;-0.49;100.00
8318;BME280;4196;48.926;8.964;2023-01-26T15:19:39;99443.34;;;-0.53;100.00
8318;BME280;4196;48.926;8.964;2023-01-26T15:22:26;99426.91;;;-0.60;100.00
8318;BME280;4196;48.926;8.964;2023-01-26T15:25:16;99442.03;;;-0.45;100.00
8318;BME280;4196;48.926;8.964;2023-01-26T15:28:04;99440.66;;;-0.56;100.00
8318;BME280;4196;48.926;8.964;2023-01-26T15:30:53;99446.84;;;-0.51;100.00
8318;BME280;4196;48.926;8.964;2023-01-26T15:39:20;99445.19;;;-0.85;100.00
8318;BME280;4196;48.926;8.964;2023-01-26T15:42:12;99452.28;;;-1.13;100.00
8318;BME280;4196;48.926;8.964;2023-01-26T15:44:59;99461.31;;;-1.02;100.00
8318;BME280;4196;48.926;8.964;2023-01-26T15:47:45;99435.31;;;-0.97;100.00
8318;BME280;4196;48.926;8.964;2023-01-26T15:50:31;99447.69;;;-0.86;100.00
8318;BME280;4196;48.926;8.964;2023-01-26T15:53:20;99432.72;;;-0.98;100.00
8318;BME280;4196;48.926;8.964;2023-01-26T15:56:12;99414.03;;;-1.16;100.00
8318;BME280;4196;48.926;8.964;2023-01-26T15:58:58;99430.66;;;-1.05;100.00
8318;BME280;4196;48.926;8.964;2023-01-26T16:01:45;99450.03;;;-1.07;100.00
8318;BME280;4196;48.926;8.964;2023-01-26T16:04:31;99415.44;;;-1.22;100.00
8318;BME280;4196;48.926;8.964;2023-01-26T16:07:17;99425.28;;;-1.11;100.00
8318;BME280;4196;48.926;8.964;2023-01-26T16:10:04;99423.06;;;-1.22;100.00
8318;BME280;4196;48.926;8.964;2023-01-26T16:12:51;99425.00;;;-1.17;100.00
8318;BME280;4196;48.926;8.964;2023-01-26T16:15:47;99428.47;;;-1.15;100.00
8318;BME280;4196;48.926;8.964;2023-01-26T16:18:33;99433.69;;;-1.12;100.00
8318;BME280;4196;48.926;8.964;2023-01-26T16:21:22;99445.59;;;-1.11;100.00
8318;BME280;4196;48.926;8.964;2023-01-26T16:24:09;99437.91;;;-1.13;100.00
8318;BME280;4196;48.926;8.964;2023-01-26T16:26:57;99449.91;;;-1.10;100.00
8318;BME280;4196;48.926;8.964;2023-01-26T16:29:43;99458.13;;;-0.98;100.00
8318;BME280;4196;48.926;8.964;2023-01-26T16:32:29;99459.66;;;-1.18;100.00
8318;BME280;4196;48.926;8.964;2023-01-26T16:35:21;99465.53;;;-1.03;100.00
8318;BME280;4196;48.926;8.964;2023-01-26T16:38:08;99438.50;;;-1.01;100.00
8318;BME280;4196;48.926;8.964;2023-01-26T16:40:58;99468.44;;;-0.95;100.00
8318;BME280;4196;48.926;8.964;2023-01-26T16:43:44;99453.19;;;-0.95;100.00
8318;BME280;4196;48.926;8.964;2023-01-26T16:46:30;99443.44;;;-1.04;100.00
8318;BME280;4196;48.926;8.964;2023-01-26T16:49:17;99447.50;;;-1.07;100.00